sensor_id;sensor_type;location;lat;lon;timestamp;P1;durP1;ratioP1;P2;durP2;ratioP2
51499;SDS011;39101;53.478;6.158;2022-07-01T00:01:23;11.50;;;2.25;;
51499;SDS011;39101;53.478;6.158;2022-07-01T00:03:48;6.97;;;1.85;;
51499;SDS011;39101;53.478;6.158;2022-07-01T00:06:15;8.98;;;1.90;;
51499;SDS011;39101;53.478;6.158;2022-07-01T00:08:41;7.70;;;1.77;;
51499;SDS011;39101;53.478;6.158;2022-07-01T00:11:06;10.55;;;2.13;;
51499;SDS011;39101;53.478;6.158;2022-07-01T00:13:33;10.20;;;1.88;;
51499;SDS011;39101;53.478;6.158;2022-07-01T00:16:00;9.07;;;1.50;;
51499;SDS011;39101;53.478;6.158;2022-07-01T00:18:25;6.85;;;1.40;;
51499;SDS011;39101;53.478;6.158;2022-07-01T00:20:51;6.28;;;1.77;;
51499;SDS011;39101;53.478;6.158;2022-07-01T00:23:17;5.53;;;1.42;;
51499;SDS011;39101;53.478;6.158;2022-07-01T00:25:44;9.20;;;1.40;;
51499;SDS011;39101;53.478;6.158;2022-07-01T00:28:10;7.03;;;1.88;;
51499;SDS011;39101;53.478;6.158;2022-07-01T00:30:36;5.13;;;1.38;;
51499;SDS011;39101;53.478;6.158;2022-07-01T00:33:02;5.03;;;1.42;;
51499;SDS011;39101;53.478;6.158;2022-07-01T00:35:28;8.90;;;2.17;;
51499;SDS011;39101;53.478;6.158;2022-07-01T00:37:54;5.40;;;1.30;;
51499;SDS011;39101;53.478;6.158;2022-07-01T00:40:20;9.05;;;0.80;;
51499;SDS011;39101;53.478;6.158;2022-07-01T00:42:45;4.70;;;0.70;;
51499;SDS011;39101;53.478;6.158;2022-07-01T00:45:12;5.95;;;1.08;;
51499;SDS011;39101;53.478;6.158;2022-07-01T00:47:39;5.22;;;0.98;;
51499;SDS011;39101;53.478;6.158;2022-07-01T00:50:10;5.32;;;0.90;;
51499;SDS011;39101;53.478;6.158;2022-07-01T00:52:38;4.30;;;0.90;;
51499;SDS011;39101;53.478;6.158;2022-07-01T00:55:05;4.95;;;1.20;;
51499;SDS011;39101;53.478;6.158;2022-07-01T00:57:34;5.63;;;1.10;;
51499;SDS011;39101;53.478;6.158;2022-07-01T01:00:03;4.60;;;0.98;;
51499;SDS011;39101;53.478;6.158;2022-07-01T01:02:31;1.77;;;0.90;;
51499;SDS011;39101;53.478;6.158;2022-07-01T01:04:57;2.95;;;0.80;;
51499;SDS011;39101;53.478;6.158;2022-07-01T01:07:22;1.77;;;0.60;;
51499;SDS011;39101;53.478;6.158;2022-07-01T01:09:49;4.20;;;1.17;;
51499;SDS011;39101;53.478;6.158;2022-07-01T01:12:15;4.15;;;1.30;;
51499;SDS011;39101;53.478;6.158;2022-07-01T01:14:45;3.30;;;1.38;;
51499;SDS011;39101;53.478;6.158;2022-07-01T01:17:13;4.22;;;1.17;;
51499;SDS011;39101;53.478;6.158;2022-07-01T01:19:40;4.47;;;1.83;;
51499;SDS011;39101;53.478;6.158;2022-07-01T01:22:06;3.42;;;1.50;;
51499;SDS011;39101;53.478;6.158;2022-07-01T01:24:32;5.43;;;1.30;;
51499;SDS011;39101;53.478;6.158;2022-07-01T01:26:57;5.28;;;2.75;;
51499;SDS011;39101;53.478;6.158;2022-07-01T01:29:23;3.22;;;1.20;;
51499;SDS011;39101;53.478;6.158;2022-07-01T01:31:48;6.45;;;1.48;;
51499;SDS011;39101;53.478;6.158;2022-07-01T01:34:14;7.13;;;1.60;;
51499;SDS011;39101;53.478;6.158;2022-07-01T01:36:40;4.68;;;1.23;;
51499;SDS011;39101;53.478;6.158;2022-07-01T01:39:06;4.60;;;1.40;;
51499;SDS011;39101;53.478;6.158;2022-07-01T01:41:37;3.97;;;1.27;;
51499;SDS011;39101;53.478;6.158;2022-07-01T01:44:03;3.05;;;1.00;;
51499;SDS011;39101;53.478;6.158;2022-07-01T01:46:28;4.60;;;0.80;;
51499;SDS011;39101;53.478;6.158;2022-07-01T01:48:55;7.22;;;1.20;;
51499;SDS011;39101;53.478;6.158;2022-07-01T01:51:21;3.38;;;1.17;;
51499;SDS011;39101;53.478;6.158;2022-07-01T01:53:47;4.38;;;1.40;;
51499;SDS011;39101;53.478;6.158;2022-07-01T01:56:12;5.90;;;1.85;;
51499;SDS011;39101;53.478;6.158;2022-07-01T01:58:38;3.92;;;1.35;;
51499;SDS011;39101;53.478;6.158;2022-07-01T02:01:08;6.90;;;1.42;;
51499;SDS011;39101;53.478;6.158;2022-07-01T02:03:35;5.28;;;1.33;;
51499;SDS011;39101;53.478;6.158;2022-07-01T02:06:02;3.78;;;1.27;;
51499;SDS011;39101;53.478;6.158;2022-07-01T02:08:28;7.30;;;1.70;;
51499;SDS011;39101;53.478;6.158;2022-07-01T02:10:54;7.80;;;1.10;;
51499;SDS011;39101;53.478;6.158;2022-07-01T02:13:20;4.15;;;1.77;;
51499;SDS011;39101;53.478;6.158;2022-07-01T02:15:46;2.33;;;1.10;;
51499;SDS011;39101;53.478;6.158;2022-07-01T02:18:11;3.53;;;1.20;;
51499;SDS011;39101;53.478;6.158;2022-07-01T02:20:37;3.15;;;0.80;;
51499;SDS011;39101;53.478;6.158;2022-07-01T02:23:03;4.07;;;1.40;;
51499;SDS011;39101;53.478;6.158;2022-07-01T02:25:28;2.33;;;0.93;;
51499;SDS011;39101;53.478;6.158;2022-07-01T02:27:54;4.90;;;1.10;;
51499;SDS011;39101;53.478;6.158;2022-07-01T02:30:20;3.40;;;0.70;;
51499;SDS011;39101;53.478;6.158;2022-07-01T02:32:46;3.72;;;1.10;;
51499;SDS011;39101;53.478;6.158;2022-07-01T02:35:12;1.70;;;0.75;;
51499;SDS011;39101;53.478;6.158;2022-07-01T02:37:38;2.90;;;0.93;;
51499;SDS011;39101;53.478;6.158;2022-07-01T02:40:04;2.05;;;0.98;;
51499;SDS011;39101;53.478;6.158;2022-07-01T02:42:31;2.47;;;0.90;;
51499;SDS011;39101;53.478;6.158;2022-07-01T02:45:00;3.20;;;1.48;;
51499;SDS011;39101;53.478;6.158;2022-07-01T02:47:34;4.57;;;0.98;;
51499;SDS011;39101;53.478;6.158;2022-07-01T02:50:02;3.60;;;1.52;;
51499;SDS011;39101;53.478;6.158;2022-07-01T02:52:29;4.28;;;0.80;;
51499;SDS011;39101;53.478;6.158;2022-07-01T02:54:55;3.60;;;0.90;;
51499;SDS011;39101;53.478;6.158;2022-07-01T02:57:21;3.60;;;0.77;;
51499;SDS011;39101;53.478;6.158;2022-07-01T02:59:48;1.75;;;0.77;;
51499;SDS011;39101;53.478;6.158;2022-07-01T03:02:16;2.50;;;0.65;;
51499;SDS011;39101;53.478;6.158;2022-07-01T03:04:43;3.78;;;0.70;;
51499;SDS011;39101;53.478;6.158;2022-07-01T03:07:09;3.75;;;0.75;;
51499;SDS011;39101;53.478;6.158;2022-07-01T03:09:35;2.63;;;0.70;;
51499;SDS011;39101;53.478;6.158;2022-07-01T03:12:00;2.13;;;0.80;;
51499;SDS011;39101;53.478;6.158;2022-07-01T03:14:46;2.72;;;0.65;;
51499;SDS011;39101;53.478;6.158;2022-07-01T03:17:12;2.08;;;1.00;;
51499;SDS011;39101;53.478;6.158;2022-07-01T03:19:38;2.05;;;0.80;;
51499;SDS011;39101;53.478;6.158;2022-07-01T03:22:03;3.05;;;1.08;;
51499;SDS011;39101;53.478;6.158;2022-07-01T03:24:29;5.80;;;1.20;;
51499;SDS011;39101;53.478;6.158;2022-07-01T03:26:54;3.08;;;0.85;;
51499;SDS011;39101;53.478;6.158;2022-07-01T03:29:20;4.10;;;0.95;;
51499;SDS011;39101;53.478;6.158;2022-07-01T03:31:46;3.22;;;1.10;;
51499;SDS011;39101;53.478;6.158;2022-07-01T03:34:11;4.78;;;1.30;;
51499;SDS011;39101;53.478;6.158;2022-07-01T03:36:37;2.83;;;1.30;;
51499;SDS011;39101;53.478;6.158;2022-07-01T03:39:02;2.72;;;1.15;;
51499;SDS011;39101;53.478;6.158;2022-07-01T03:41:29;4.80;;;1.25;;
51499;SDS011;39101;53.478;6.158;2022-07-01T03:43:55;3.03;;;1.20;;
51499;SDS011;39101;53.478;6.158;2022-07-01T03:46:20;3.33;;;1.20;;
51499;SDS011;39101;53.478;6.158;2022-07-01T03:48:46;4.90;;;2.08;;
51499;SDS011;39101;53.478;6.158;2022-07-01T03:51:12;2.95;;;1.35;;
51499;SDS011;39101;53.478;6.158;2022-07-01T03:53:37;5.78;;;1.80;;
51499;SDS011;39101;53.478;6.158;2022-07-01T03:56:22;3.33;;;1.40;;
51499;SDS011;39101;53.478;6.158;2022-07-01T03:58:47;3.67;;;1.60;;
51499;SDS011;39101;53.478;6.158;2022-07-01T04:01:13;3.58;;;1.80;;
51499;SDS011;39101;53.478;6.158;2022-07-01T04:03:39;3.42;;;1.75;;
51499;SDS011;39101;53.478;6.158;2022-07-01T04:06:04;8.20;;;3.40;;
51499;SDS011;39101;53.478;6.158;2022-07-01T04:08:30;6.40;;;3.40;;
51499;SDS011;39101;53.478;6.158;2022-07-01T04:10:56;4.82;;;3.28;;
51499;SDS011;39101;53.478;6.158;2022-07-01T04:13:22;5.03;;;3.78;;
51499;SDS011;39101;53.478;6.158;2022-07-01T04:15:48;6.72;;;3.30;;
51499;SDS011;39101;53.478;6.158;2022-07-01T04:18:14;3.67;;;2.42;;
51499;SDS011;39101;53.478;6.158;2022-07-01T04:20:40;5.05;;;2.60;;
51499;SDS011;39101;53.478;6.158;2022-07-01T04:23:05;4.90;;;2.65;;
51499;SDS011;39101;53.478;6.158;2022-07-01T04:25:31;5.35;;;2.60;;
51499;SDS011;39101;53.478;6.158;2022-07-01T04:27:56;4.55;;;2.22;;
51499;SDS011;39101;53.478;6.158;2022-07-01T04:30:22;5.03;;;2.72;;
51499;SDS011;39101;53.478;6.158;2022-07-01T04:32:48;5.88;;;2.65;;
51499;SDS011;39101;53.478;6.158;2022-07-01T04:35:14;7.15;;;2.90;;
51499;SDS011;39101;53.478;6.158;2022-07-01T04:37:42;7.15;;;3.00;;
51499;SDS011;39101;53.478;6.158;2022-07-01T04:40:08;5.60;;;2.42;;
51499;SDS011;39101;53.478;6.158;2022-07-01T04:42:34;4.30;;;2.80;;
51499;SDS011;39101;53.478;6.158;2022-07-01T04:44:59;6.03;;;2.80;;
51499;SDS011;39101;53.478;6.158;2022-07-01T04:47:25;6.63;;;3.13;;
51499;SDS011;39101;53.478;6.158;2022-07-01T04:49:51;6.05;;;3.20;;
51499;SDS011;39101;53.478;6.158;2022-07-01T04:52:16;6.32;;;3.33;;
51499;SDS011;39101;53.478;6.158;2022-07-01T04:54:42;8.05;;;3.47;;
51499;SDS011;39101;53.478;6.158;2022-07-01T04:57:08;10.23;;;3.47;;
51499;SDS011;39101;53.478;6.158;2022-07-01T04:59:34;6.75;;;2.63;;
51499;SDS011;39101;53.478;6.158;2022-07-01T05:01:59;7.40;;;3.00;;
51499;SDS011;39101;53.478;6.158;2022-07-01T05:04:26;8.13;;;3.17;;
51499;SDS011;39101;53.478;6.158;2022-07-01T05:06:53;9.73;;;3.15;;
51499;SDS011;39101;53.478;6.158;2022-07-01T05:09:18;7.25;;;3.20;;
51499;SDS011;39101;53.478;6.158;2022-07-01T05:11:44;7.00;;;2.60;;
51499;SDS011;39101;53.478;6.158;2022-07-01T05:14:10;10.13;;;3.63;;
51499;SDS011;39101;53.478;6.158;2022-07-01T05:16:35;8.20;;;3.35;;
51499;SDS011;39101;53.478;6.158;2022-07-01T05:19:01;5.93;;;2.47;;
51499;SDS011;39101;53.478;6.158;2022-07-01T05:21:46;7.28;;;2.80;;
51499;SDS011;39101;53.478;6.158;2022-07-01T05:24:20;5.68;;;2.40;;
51499;SDS011;39101;53.478;6.158;2022-07-01T05:26:47;7.18;;;2.90;;
51499;SDS011;39101;53.478;6.158;2022-07-01T05:29:13;8.27;;;2.30;;
51499;SDS011;39101;53.478;6.158;2022-07-01T05:31:39;7.25;;;2.78;;
51499;SDS011;39101;53.478;6.158;2022-07-01T05:34:04;9.93;;;2.70;;
51499;SDS011;39101;53.478;6.158;2022-07-01T05:36:32;7.03;;;2.15;;
51499;SDS011;39101;53.478;6.158;2022-07-01T05:38:58;6.45;;;2.35;;
51499;SDS011;39101;53.478;6.158;2022-07-01T05:41:24;6.50;;;2.10;;
51499;SDS011;39101;53.478;6.158;2022-07-01T05:43:49;4.72;;;1.83;;
51499;SDS011;39101;53.478;6.158;2022-07-01T05:46:15;9.63;;;3.05;;
51499;SDS011;39101;53.478;6.158;2022-07-01T05:48:44;8.43;;;2.38;;
51499;SDS011;39101;53.478;6.158;2022-07-01T05:51:10;7.10;;;2.40;;
51499;SDS011;39101;53.478;6.158;2022-07-01T05:53:35;9.15;;;2.53;;
51499;SDS011;39101;53.478;6.158;2022-07-01T05:56:01;12.45;;;3.28;;
51499;SDS011;39101;53.478;6.158;2022-07-01T05:58:27;5.55;;;2.35;;
51499;SDS011;39101;53.478;6.158;2022-07-01T06:00:52;7.20;;;1.88;;
51499;SDS011;39101;53.478;6.158;2022-07-01T06:03:18;6.47;;;2.78;;
51499;SDS011;39101;53.478;6.158;2022-07-01T06:05:44;9.48;;;2.25;;
51499;SDS011;39101;53.478;6.158;2022-07-01T06:08:09;7.22;;;2.20;;
51499;SDS011;39101;53.478;6.158;2022-07-01T06:10:35;7.88;;;2.75;;
51499;SDS011;39101;53.478;6.158;2022-07-01T06:13:01;9.05;;;2.30;;
51499;SDS011;39101;53.478;6.158;2022-07-01T06:15:27;11.07;;;2.00;;
51499;SDS011;39101;53.478;6.158;2022-07-01T06:17:53;9.15;;;2.28;;
51499;SDS011;39101;53.478;6.158;2022-07-01T06:20:19;9.45;;;2.83;;
51499;SDS011;39101;53.478;6.158;2022-07-01T06:22:45;7.15;;;1.98;;
51499;SDS011;39101;53.478;6.158;2022-07-01T06:25:11;12.75;;;2.40;;
51499;SDS011;39101;53.478;6.158;2022-07-01T06:27:40;9.77;;;2.50;;
51499;SDS011;39101;53.478;6.158;2022-07-01T06:30:06;10.18;;;2.60;;
51499;SDS011;39101;53.478;6.158;2022-07-01T06:32:33;8.85;;;2.15;;
51499;SDS011;39101;53.478;6.158;2022-07-01T06:34:58;9.68;;;2.80;;
51499;SDS011;39101;53.478;6.158;2022-07-01T06:37:24;11.55;;;2.90;;
51499;SDS011;39101;53.478;6.158;2022-07-01T06:39:50;7.75;;;2.75;;
51499;SDS011;39101;53.478;6.158;2022-07-01T06:42:15;6.97;;;2.58;;
51499;SDS011;39101;53.478;6.158;2022-07-01T06:44:41;9.02;;;2.47;;
51499;SDS011;39101;53.478;6.158;2022-07-01T06:47:07;7.63;;;2.70;;
51499;SDS011;39101;53.478;6.158;2022-07-01T06:49:32;11.23;;;2.85;;
51499;SDS011;39101;53.478;6.158;2022-07-01T06:51:58;7.75;;;3.08;;
51499;SDS011;39101;53.478;6.158;2022-07-01T06:54:24;10.10;;;3.10;;
51499;SDS011;39101;53.478;6.158;2022-07-01T06:56:49;10.90;;;2.90;;
51499;SDS011;39101;53.478;6.158;2022-07-01T06:59:15;8.73;;;3.03;;
51499;SDS011;39101;53.478;6.158;2022-07-01T07:01:41;9.95;;;2.90;;
51499;SDS011;39101;53.478;6.158;2022-07-01T07:04:07;8.90;;;2.88;;
51499;SDS011;39101;53.478;6.158;2022-07-01T07:06:32;11.20;;;3.33;;
51499;SDS011;39101;53.478;6.158;2022-07-01T07:08:58;7.85;;;2.83;;
51499;SDS011;39101;53.478;6.158;2022-07-01T07:11:24;8.27;;;2.85;;
51499;SDS011;39101;53.478;6.158;2022-07-01T07:13:50;12.98;;;4.20;;
51499;SDS011;39101;53.478;6.158;2022-07-01T07:16:16;11.85;;;3.25;;
51499;SDS011;39101;53.478;6.158;2022-07-01T07:18:46;8.40;;;3.03;;
51499;SDS011;39101;53.478;6.158;2022-07-01T07:21:12;7.68;;;3.28;;
51499;SDS011;39101;53.478;6.158;2022-07-01T07:23:38;11.63;;;4.63;;
51499;SDS011;39101;53.478;6.158;2022-07-01T07:26:04;8.38;;;3.03;;
51499;SDS011;39101;53.478;6.158;2022-07-01T07:28:29;10.98;;;3.78;;
51499;SDS011;39101;53.478;6.158;2022-07-01T07:30:55;9.68;;;4.05;;
51499;SDS011;39101;53.478;6.158;2022-07-01T07:33:21;9.73;;;3.95;;
51499;SDS011;39101;53.478;6.158;2022-07-01T07:35:47;12.93;;;4.45;;
51499;SDS011;39101;53.478;6.158;2022-07-01T07:38:13;8.15;;;4.70;;
51499;SDS011;39101;53.478;6.158;2022-07-01T07:40:38;15.27;;;5.80;;
51499;SDS011;39101;53.478;6.158;2022-07-01T07:43:04;11.63;;;4.60;;
51499;SDS011;39101;53.478;6.158;2022-07-01T07:45:32;8.13;;;4.65;;
51499;SDS011;39101;53.478;6.158;2022-07-01T07:47:58;11.10;;;5.03;;
51499;SDS011;39101;53.478;6.158;2022-07-01T07:50:25;9.07;;;4.45;;
51499;SDS011;39101;53.478;6.158;2022-07-01T07:52:51;11.57;;;4.55;;
51499;SDS011;39101;53.478;6.158;2022-07-01T07:55:17;9.00;;;4.90;;
51499;SDS011;39101;53.478;6.158;2022-07-01T07:57:43;14.98;;;4.45;;
51499;SDS011;39101;53.478;6.158;2022-07-01T08:00:10;10.38;;;3.85;;
51499;SDS011;39101;53.478;6.158;2022-07-01T08:02:38;11.85;;;3.72;;
51499;SDS011;39101;53.478;6.158;2022-07-01T08:05:05;7.70;;;2.58;;
51499;SDS011;39101;53.478;6.158;2022-07-01T08:07:38;11.13;;;2.97;;
51499;SDS011;39101;53.478;6.158;2022-07-01T08:10:05;5.78;;;2.78;;
51499;SDS011;39101;53.478;6.158;2022-07-01T08:12:32;8.10;;;2.38;;
51499;SDS011;39101;53.478;6.158;2022-07-01T08:14:58;7.90;;;3.05;;
51499;SDS011;39101;53.478;6.158;2022-07-01T08:17:25;10.75;;;4.07;;
51499;SDS011;39101;53.478;6.158;2022-07-01T08:19:51;9.88;;;2.80;;
51499;SDS011;39101;53.478;6.158;2022-07-01T08:22:17;9.15;;;2.90;;
51499;SDS011;39101;53.478;6.158;2022-07-01T08:24:43;8.30;;;2.40;;
51499;SDS011;39101;53.478;6.158;2022-07-01T08:27:08;5.43;;;1.90;;
51499;SDS011;39101;53.478;6.158;2022-07-01T08:29:34;8.32;;;2.70;;
51499;SDS011;39101;53.478;6.158;2022-07-01T08:32:00;7.25;;;2.08;;
51499;SDS011;39101;53.478;6.158;2022-07-01T08:34:25;5.65;;;1.98;;
51499;SDS011;39101;53.478;6.158;2022-07-01T08:36:51;8.65;;;2.10;;
51499;SDS011;39101;53.478;6.158;2022-07-01T08:39:17;9.30;;;2.25;;
51499;SDS011;39101;53.478;6.158;2022-07-01T08:41:43;8.80;;;2.88;;
51499;SDS011;39101;53.478;6.158;2022-07-01T08:44:09;5.78;;;2.22;;
51499;SDS011;39101;53.478;6.158;2022-07-01T08:46:34;8.32;;;2.67;;
51499;SDS011;39101;53.478;6.158;2022-07-01T08:49:01;7.85;;;2.10;;
51499;SDS011;39101;53.478;6.158;2022-07-01T08:51:28;5.78;;;1.77;;
51499;SDS011;39101;53.478;6.158;2022-07-01T08:53:53;6.47;;;2.00;;
51499;SDS011;39101;53.478;6.158;2022-07-01T08:56:19;5.97;;;2.22;;
51499;SDS011;39101;53.478;6.158;2022-07-01T08:59:03;7.72;;;2.00;;
51499;SDS011;39101;53.478;6.158;2022-07-01T09:01:32;11.93;;;2.20;;
51499;SDS011;39101;53.478;6.158;2022-07-01T09:04:12;7.45;;;1.85;;
51499;SDS011;39101;53.478;6.158;2022-07-01T09:06:39;7.72;;;1.60;;
51499;SDS011;39101;53.478;6.158;2022-07-01T09:09:18;5.57;;;1.55;;
51499;SDS011;39101;53.478;6.158;2022-07-01T09:11:50;3.95;;;1.50;;
51499;SDS011;39101;53.478;6.158;2022-07-01T09:14:20;5.22;;;1.35;;
51499;SDS011;39101;53.478;6.158;2022-07-01T09:16:51;6.07;;;2.00;;
51499;SDS011;39101;53.478;6.158;2022-07-01T09:19:26;6.80;;;1.55;;
51499;SDS011;39101;53.478;6.158;2022-07-01T09:21:54;5.90;;;1.67;;
51499;SDS011;39101;53.478;6.158;2022-07-01T09:24:25;6.50;;;1.92;;
51499;SDS011;39101;53.478;6.158;2022-07-01T09:27:00;6.07;;;1.85;;
51499;SDS011;39101;53.478;6.158;2022-07-01T09:29:42;4.13;;;1.38;;
51499;SDS011;39101;53.478;6.158;2022-07-01T09:32:10;5.85;;;1.52;;
51499;SDS011;39101;53.478;6.158;2022-07-01T09:37:07;3.15;;;1.48;;
51499;SDS011;39101;53.478;6.158;2022-07-01T09:39:42;7.13;;;2.08;;
51499;SDS011;39101;53.478;6.158;2022-07-01T09:42:15;5.70;;;1.65;;
51499;SDS011;39101;53.478;6.158;2022-07-01T09:44:51;6.75;;;1.35;;
51499;SDS011;39101;53.478;6.158;2022-07-01T09:47:17;6.53;;;1.42;;
51499;SDS011;39101;53.478;6.158;2022-07-01T09:49:42;4.60;;;1.02;;
51499;SDS011;39101;53.478;6.158;2022-07-01T09:52:09;4.53;;;1.00;;
51499;SDS011;39101;53.478;6.158;2022-07-01T09:54:35;4.57;;;1.20;;
51499;SDS011;39101;53.478;6.158;2022-07-01T09:57:02;4.53;;;1.25;;
51499;SDS011;39101;53.478;6.158;2022-07-01T09:59:27;5.97;;;0.80;;
51499;SDS011;39101;53.478;6.158;2022-07-01T10:01:53;4.82;;;1.13;;
51499;SDS011;39101;53.478;6.158;2022-07-01T10:04:19;6.22;;;1.50;;
51499;SDS011;39101;53.478;6.158;2022-07-01T10:06:47;4.45;;;1.10;;
51499;SDS011;39101;53.478;6.158;2022-07-01T10:15:08;4.68;;;1.00;;
51499;SDS011;39101;53.478;6.158;2022-07-01T10:17:36;4.57;;;1.23;;
51499;SDS011;39101;53.478;6.158;2022-07-01T10:20:07;5.95;;;1.48;;
51499;SDS011;39101;53.478;6.158;2022-07-01T10:22:36;4.20;;;1.17;;
51499;SDS011;39101;53.478;6.158;2022-07-01T10:30:49;5.63;;;1.50;;
51499;SDS011;39101;53.478;6.158;2022-07-01T10:33:49;8.80;;;1.25;;
51499;SDS011;39101;53.478;6.158;2022-07-01T10:44:19;2.70;;;1.10;;
51499;SDS011;39101;53.478;6.158;2022-07-01T10:46:46;5.75;;;0.88;;
51499;SDS011;39101;53.478;6.158;2022-07-01T10:49:19;6.90;;;1.10;;
51499;SDS011;39101;53.478;6.158;2022-07-01T10:52:07;5.72;;;1.08;;
51499;SDS011;39101;53.478;6.158;2022-07-01T10:57:43;4.47;;;0.90;;
51499;SDS011;39101;53.478;6.158;2022-07-01T11:07:38;4.72;;;1.10;;
51499;SDS011;39101;53.478;6.158;2022-07-01T11:10:07;4.70;;;1.55;;
51499;SDS011;39101;53.478;6.158;2022-07-01T11:12:35;6.38;;;1.40;;
51499;SDS011;39101;53.478;6.158;2022-07-01T11:15:02;7.15;;;1.35;;
51499;SDS011;39101;53.478;6.158;2022-07-01T11:17:32;5.18;;;1.40;;
51499;SDS011;39101;53.478;6.158;2022-07-01T11:19:59;5.68;;;1.88;;
51499;SDS011;39101;53.478;6.158;2022-07-01T11:22:33;7.57;;;1.42;;
51499;SDS011;39101;53.478;6.158;2022-07-01T11:25:01;6.03;;;1.30;;
51499;SDS011;39101;53.478;6.158;2022-07-01T11:27:29;7.15;;;1.90;;
51499;SDS011;39101;53.478;6.158;2022-07-01T11:29:56;4.75;;;1.50;;
51499;SDS011;39101;53.478;6.158;2022-07-01T11:32:42;3.17;;;1.10;;
51499;SDS011;39101;53.478;6.158;2022-07-01T11:35:18;4.90;;;1.38;;
51499;SDS011;39101;53.478;6.158;2022-07-01T11:38:12;6.55;;;1.50;;
51499;SDS011;39101;53.478;6.158;2022-07-01T11:40:59;6.15;;;1.48;;
51499;SDS011;39101;53.478;6.158;2022-07-01T11:43:28;3.90;;;1.20;;
51499;SDS011;39101;53.478;6.158;2022-07-01T11:45:58;5.07;;;0.90;;
51499;SDS011;39101;53.478;6.158;2022-07-01T11:48:37;5.10;;;1.20;;
51499;SDS011;39101;53.478;6.158;2022-07-01T11:51:15;4.75;;;1.40;;
51499;SDS011;39101;53.478;6.158;2022-07-01T11:53:52;3.92;;;1.15;;
51499;SDS011;39101;53.478;6.158;2022-07-01T11:56:31;4.30;;;1.70;;
51499;SDS011;39101;53.478;6.158;2022-07-01T11:59:03;4.90;;;1.38;;
51499;SDS011;39101;53.478;6.158;2022-07-01T12:01:33;7.15;;;0.90;;
51499;SDS011;39101;53.478;6.158;2022-07-01T12:04:00;3.33;;;0.93;;
51499;SDS011;39101;53.478;6.158;2022-07-01T12:06:27;4.45;;;1.13;;
51499;SDS011;39101;53.478;6.158;2022-07-01T12:08:55;3.33;;;0.90;;
51499;SDS011;39101;53.478;6.158;2022-07-01T12:11:21;3.42;;;0.88;;
51499;SDS011;39101;53.478;6.158;2022-07-01T12:13:49;3.85;;;0.90;;
51499;SDS011;39101;53.478;6.158;2022-07-01T12:16:16;3.03;;;0.93;;
51499;SDS011;39101;53.478;6.158;2022-07-01T12:18:56;3.25;;;0.80;;
51499;SDS011;39101;53.478;6.158;2022-07-01T12:21:26;3.60;;;1.02;;
51499;SDS011;39101;53.478;6.158;2022-07-01T12:24:06;3.53;;;0.90;;
51499;SDS011;39101;53.478;6.158;2022-07-01T12:26:32;2.45;;;1.02;;
51499;SDS011;39101;53.478;6.158;2022-07-01T12:28:59;1.98;;;0.80;;
51499;SDS011;39101;53.478;6.158;2022-07-01T12:31:24;3.85;;;0.90;;
51499;SDS011;39101;53.478;6.158;2022-07-01T12:33:50;6.30;;;1.63;;
51499;SDS011;39101;53.478;6.158;2022-07-01T12:36:17;3.05;;;0.80;;
51499;SDS011;39101;53.478;6.158;2022-07-01T12:38:43;2.67;;;0.70;;
51499;SDS011;39101;53.478;6.158;2022-07-01T12:44:00;4.50;;;1.10;;
51499;SDS011;39101;53.478;6.158;2022-07-01T12:46:30;3.83;;;0.80;;
51499;SDS011;39101;53.478;6.158;2022-07-01T12:48:57;6.72;;;1.10;;
51499;SDS011;39101;53.478;6.158;2022-07-01T12:51:30;2.50;;;0.57;;
51499;SDS011;39101;53.478;6.158;2022-07-01T12:53:57;4.65;;;1.00;;
51499;SDS011;39101;53.478;6.158;2022-07-01T12:56:24;4.60;;;1.35;;
51499;SDS011;39101;53.478;6.158;2022-07-01T12:58:52;6.18;;;1.02;;
51499;SDS011;39101;53.478;6.158;2022-07-01T13:01:19;6.85;;;1.15;;
51499;SDS011;39101;53.478;6.158;2022-07-01T13:03:45;4.70;;;1.50;;
51499;SDS011;39101;53.478;6.158;2022-07-01T13:06:11;4.68;;;0.98;;
51499;SDS011;39101;53.478;6.158;2022-07-01T13:08:37;6.00;;;1.10;;
51499;SDS011;39101;53.478;6.158;2022-07-01T13:11:03;6.15;;;1.10;;
51499;SDS011;39101;53.478;6.158;2022-07-01T13:13:31;5.50;;;1.40;;
51499;SDS011;39101;53.478;6.158;2022-07-01T13:15:57;3.80;;;1.02;;
51499;SDS011;39101;53.478;6.158;2022-07-01T13:18:22;2.92;;;1.10;;
51499;SDS011;39101;53.478;6.158;2022-07-01T13:20:48;4.55;;;1.02;;
51499;SDS011;39101;53.478;6.158;2022-07-01T13:23:14;5.40;;;1.67;;
51499;SDS011;39101;53.478;6.158;2022-07-01T13:25:40;6.10;;;1.40;;
51499;SDS011;39101;53.478;6.158;2022-07-01T13:28:06;7.80;;;1.20;;
51499;SDS011;39101;53.478;6.158;2022-07-01T13:30:32;4.63;;;1.40;;
51499;SDS011;39101;53.478;6.158;2022-07-01T13:32:58;6.57;;;1.50;;
51499;SDS011;39101;53.478;6.158;2022-07-01T13:35:24;6.32;;;1.27;;
51499;SDS011;39101;53.478;6.158;2022-07-01T13:37:50;5.05;;;1.55;;
51499;SDS011;39101;53.478;6.158;2022-07-01T13:40:16;6.57;;;1.15;;
51499;SDS011;39101;53.478;6.158;2022-07-01T13:42:42;5.43;;;1.33;;
51499;SDS011;39101;53.478;6.158;2022-07-01T13:45:08;8.82;;;1.70;;
51499;SDS011;39101;53.478;6.158;2022-07-01T13:47:34;5.50;;;1.00;;
51499;SDS011;39101;53.478;6.158;2022-07-01T13:50:00;6.38;;;1.20;;
51499;SDS011;39101;53.478;6.158;2022-07-01T13:52:26;4.53;;;1.20;;
51499;SDS011;39101;53.478;6.158;2022-07-01T13:54:56;7.72;;;1.20;;
51499;SDS011;39101;53.478;6.158;2022-07-01T13:57:22;9.38;;;1.88;;
51499;SDS011;39101;53.478;6.158;2022-07-01T13:59:49;7.55;;;1.20;;
51499;SDS011;39101;53.478;6.158;2022-07-01T14:02:14;8.20;;;1.50;;
51499;SDS011;39101;53.478;6.158;2022-07-01T14:04:40;4.55;;;1.20;;
51499;SDS011;39101;53.478;6.158;2022-07-01T14:07:06;6.57;;;1.30;;
51499;SDS011;39101;53.478;6.158;2022-07-01T14:09:33;6.25;;;1.70;;
51499;SDS011;39101;53.478;6.158;2022-07-01T14:12:00;7.88;;;1.25;;
51499;SDS011;39101;53.478;6.158;2022-07-01T14:14:26;10.48;;;1.88;;
51499;SDS011;39101;53.478;6.158;2022-07-01T14:16:52;8.60;;;1.30;;
51499;SDS011;39101;53.478;6.158;2022-07-01T14:19:17;5.78;;;1.27;;
51499;SDS011;39101;53.478;6.158;2022-07-01T14:21:43;7.40;;;1.38;;
51499;SDS011;39101;53.478;6.158;2022-07-01T14:24:09;5.63;;;1.30;;
51499;SDS011;39101;53.478;6.158;2022-07-01T14:26:34;7.38;;;1.40;;
51499;SDS011;39101;53.478;6.158;2022-07-01T14:29:00;4.90;;;1.25;;
51499;SDS011;39101;53.478;6.158;2022-07-01T14:31:26;7.15;;;1.25;;
51499;SDS011;39101;53.478;6.158;2022-07-01T14:33:51;4.63;;;1.30;;
51499;SDS011;39101;53.478;6.158;2022-07-01T14:36:17;8.93;;;1.20;;
51499;SDS011;39101;53.478;6.158;2022-07-01T14:38:42;10.50;;;1.30;;
51499;SDS011;39101;53.478;6.158;2022-07-01T14:41:08;6.40;;;1.30;;
51499;SDS011;39101;53.478;6.158;2022-07-01T14:43:36;7.93;;;1.60;;
51499;SDS011;39101;53.478;6.158;2022-07-01T14:46:03;4.57;;;1.20;;
51499;SDS011;39101;53.478;6.158;2022-07-01T14:48:33;4.88;;;1.27;;
51499;SDS011;39101;53.478;6.158;2022-07-01T14:51:01;5.05;;;1.00;;
51499;SDS011;39101;53.478;6.158;2022-07-01T14:53:26;10.20;;;1.67;;
51499;SDS011;39101;53.478;6.158;2022-07-01T14:55:52;5.45;;;1.58;;
51499;SDS011;39101;53.478;6.158;2022-07-01T14:58:18;11.23;;;2.17;;
51499;SDS011;39101;53.478;6.158;2022-07-01T15:00:45;8.02;;;1.60;;
51499;SDS011;39101;53.478;6.158;2022-07-01T15:03:11;8.05;;;2.40;;
51499;SDS011;39101;53.478;6.158;2022-07-01T15:05:36;9.13;;;2.20;;
51499;SDS011;39101;53.478;6.158;2022-07-01T15:08:02;8.02;;;2.28;;
51499;SDS011;39101;53.478;6.158;2022-07-01T15:10:28;6.90;;;1.35;;
51499;SDS011;39101;53.478;6.158;2022-07-01T15:12:54;7.53;;;1.80;;
51499;SDS011;39101;53.478;6.158;2022-07-01T15:15:19;5.55;;;1.38;;
51499;SDS011;39101;53.478;6.158;2022-07-01T15:17:45;10.50;;;1.20;;
51499;SDS011;39101;53.478;6.158;2022-07-01T15:20:12;5.40;;;1.45;;
51499;SDS011;39101;53.478;6.158;2022-07-01T15:22:39;7.20;;;1.70;;